sensor_id;sensor_type;location;lat;lon;timestamp;P1;durP1;ratioP1;P2;durP2;ratioP2
2884;SDS011;54691;48.262;11.586;2023-05-16T00:03:38;5.30;;;2.90;;
2884;SDS011;54691;48.262;11.586;2023-05-16T00:10:37;11.93;;;3.40;;
2884;SDS011;54691;48.262;11.586;2023-05-16T00:17:34;3.98;;;2.72;;
2884;SDS011;54691;48.262;11.586;2023-05-16T00:24:32;3.67;;;2.83;;
2884;SDS011;54691;48.262;11.586;2023-05-16T00:31:29;7.33;;;3.08;;
2884;SDS011;54691;48.262;11.586;2023-05-16T00:38:26;5.15;;;3.00;;
2884;SDS011;54691;48.262;11.586;2023-05-16T00:45:24;4.15;;;2.80;;
2884;SDS011;54691;48.262;11.586;2023-05-16T00:52:21;6.62;;;3.47;;
2884;SDS011;54691;48.262;11.586;2023-05-16T00:59:20;4.42;;;2.70;;
2884;SDS011;54691;48.262;11.586;2023-05-16T01:06:19;10.63;;;4.08;;
2884;SDS011;54691;48.262;11.586;2023-05-16T01:17:06;6.15;;;3.50;;
2884;SDS011;54691;48.262;11.586;2023-05-16T01:24:03;6.65;;;3.12;;
2884;SDS011;54691;48.262;11.586;2023-05-16T01:31:01;5.37;;;3.10;;
2884;SDS011;54691;48.262;11.586;2023-05-16T01:48:47;8.20;;;3.58;;
2884;SDS011;54691;48.262;11.586;2023-05-16T01:55:47;19.95;;;4.37;;
2884;SDS011;54691;48.262;11.586;2023-05-16T01:59:17;26.50;;;5.45;;
2884;SDS011;54691;48.262;11.586;2023-05-16T02:06:14;11.15;;;4.97;;
2884;SDS011;54691;48.262;11.586;2023-05-16T02:13:14;6.47;;;3.95;;
2884;SDS011;54691;48.262;11.586;2023-05-16T02:20:11;13.38;;;5.92;;
2884;SDS011;54691;48.262;11.586;2023-05-16T02:27:10;13.03;;;5.17;;
2884;SDS011;54691;48.262;11.586;2023-05-16T02:34:07;12.37;;;4.75;;
2884;SDS011;54691;48.262;11.586;2023-05-16T02:41:05;16.12;;;5.75;;
2884;SDS011;54691;48.262;11.586;2023-05-16T02:48:02;19.77;;;6.10;;
2884;SDS011;54691;48.262;11.586;2023-05-16T02:54:59;14.83;;;6.17;;
2884;SDS011;54691;48.262;11.586;2023-05-16T03:01:57;10.38;;;5.53;;
2884;SDS011;54691;48.262;11.586;2023-05-16T03:08:54;15.80;;;5.92;;
2884;SDS011;54691;48.262;11.586;2023-05-16T03:15:51;12.45;;;5.25;;
2884;SDS011;54691;48.262;11.586;2023-05-16T03:22:48;10.35;;;5.12;;
2884;SDS011;54691;48.262;11.586;2023-05-16T03:29:45;13.48;;;5.33;;
2884;SDS011;54691;48.262;11.586;2023-05-16T03:36:42;10.00;;;5.25;;
2884;SDS011;54691;48.262;11.586;2023-05-16T03:43:42;20.37;;;6.17;;
2884;SDS011;54691;48.262;11.586;2023-05-16T03:50:41;12.82;;;5.70;;
2884;SDS011;54691;48.262;11.586;2023-05-16T03:57:38;23.15;;;6.60;;
2884;SDS011;54691;48.262;11.586;2023-05-16T04:04:37;12.90;;;5.97;;
2884;SDS011;54691;48.262;11.586;2023-05-16T04:11:34;18.32;;;6.78;;
2884;SDS011;54691;48.262;11.586;2023-05-16T04:18:31;12.07;;;4.95;;
2884;SDS011;54691;48.262;11.586;2023-05-16T04:25:28;9.75;;;5.78;;
2884;SDS011;54691;48.262;11.586;2023-05-16T04:32:28;12.07;;;5.72;;
2884;SDS011;54691;48.262;11.586;2023-05-16T04:39:25;13.45;;;5.53;;
2884;SDS011;54691;48.262;11.586;2023-05-16T04:46:22;14.80;;;6.22;;
2884;SDS011;54691;48.262;11.586;2023-05-16T04:53:19;18.85;;;6.40;;
2884;SDS011;54691;48.262;11.586;2023-05-16T05:00:17;16.82;;;6.15;;
2884;SDS011;54691;48.262;11.586;2023-05-16T05:07:14;17.60;;;6.30;;
2884;SDS011;54691;48.262;11.586;2023-05-16T05:14:11;12.05;;;6.40;;
2884;SDS011;54691;48.262;11.586;2023-05-16T05:21:08;12.88;;;6.25;;
2884;SDS011;54691;48.262;11.586;2023-05-16T05:28:05;10.90;;;5.90;;
2884;SDS011;54691;48.262;11.586;2023-05-16T05:35:02;24.92;;;9.00;;
2884;SDS011;54691;48.262;11.586;2023-05-16T05:42:00;30.55;;;8.18;;
2884;SDS011;54691;48.262;11.586;2023-05-16T05:48:59;26.37;;;8.03;;
2884;SDS011;54691;48.262;11.586;2023-05-16T05:55:56;25.48;;;7.83;;
2884;SDS011;54691;48.262;11.586;2023-05-16T06:02:55;19.70;;;7.20;;
2884;SDS011;54691;48.262;11.586;2023-05-16T06:09:52;16.62;;;7.40;;
2884;SDS011;54691;48.262;11.586;2023-05-16T06:16:49;23.30;;;8.13;;
2884;SDS011;54691;48.262;11.586;2023-05-16T06:23:48;14.75;;;6.70;;
2884;SDS011;54691;48.262;11.586;2023-05-16T06:30:45;20.50;;;7.92;;
2884;SDS011;54691;48.262;11.586;2023-05-16T06:37:43;25.92;;;8.90;;
2884;SDS011;54691;48.262;11.586;2023-05-16T06:44:41;25.15;;;8.75;;
2884;SDS011;54691;48.262;11.586;2023-05-16T06:51:39;16.23;;;7.78;;
2884;SDS011;54691;48.262;11.586;2023-05-16T06:58:38;15.83;;;6.47;;
2884;SDS011;54691;48.262;11.586;2023-05-16T07:05:35;17.95;;;8.13;;
2884;SDS011;54691;48.262;11.586;2023-05-16T07:12:35;17.52;;;7.17;;
2884;SDS011;54691;48.262;11.586;2023-05-16T07:19:34;21.95;;;7.12;;
2884;SDS011;54691;48.262;11.586;2023-05-16T07:26:35;30.85;;;9.65;;
2884;SDS011;54691;48.262;11.586;2023-05-16T07:33:30;17.92;;;7.05;;
2884;SDS011;54691;48.262;11.586;2023-05-16T07:40:28;24.35;;;7.90;;
2884;SDS011;54691;48.262;11.586;2023-05-16T07:47:25;20.15;;;7.65;;
2884;SDS011;54691;48.262;11.586;2023-05-16T07:54:22;28.75;;;9.65;;
2884;SDS011;54691;48.262;11.586;2023-05-16T08:01:21;24.52;;;8.33;;
2884;SDS011;54691;48.262;11.586;2023-05-16T08:08:18;22.35;;;8.75;;
2884;SDS011;54691;48.262;11.586;2023-05-16T08:15:15;22.95;;;8.63;;
2884;SDS011;54691;48.262;11.586;2023-05-16T08:22:12;18.07;;;7.87;;
2884;SDS011;54691;48.262;11.586;2023-05-16T08:29:09;25.12;;;9.08;;
2884;SDS011;54691;48.262;11.586;2023-05-16T08:36:08;40.58;;;11.63;;
2884;SDS011;54691;48.262;11.586;2023-05-16T08:43:05;20.55;;;8.55;;
2884;SDS011;54691;48.262;11.586;2023-05-16T08:50:05;29.52;;;9.95;;
2884;SDS011;54691;48.262;11.586;2023-05-16T08:57:04;24.82;;;9.88;;
2884;SDS011;54691;48.262;11.586;2023-05-16T09:04:05;17.35;;;8.28;;
2884;SDS011;54691;48.262;11.586;2023-05-16T09:11:02;21.00;;;9.20;;
2884;SDS011;54691;48.262;11.586;2023-05-16T09:17:59;31.55;;;9.90;;
2884;SDS011;54691;48.262;11.586;2023-05-16T09:24:58;32.93;;;10.40;;
2884;SDS011;54691;48.262;11.586;2023-05-16T09:31:55;35.88;;;11.75;;
2884;SDS011;54691;48.262;11.586;2023-05-16T09:38:54;19.67;;;10.10;;
2884;SDS011;54691;48.262;11.586;2023-05-16T09:42:24;24.72;;;10.82;;
2884;SDS011;54691;48.262;11.586;2023-05-16T09:49:21;25.15;;;9.80;;
2884;SDS011;54691;48.262;11.586;2023-05-16T09:56:19;24.63;;;9.73;;
2884;SDS011;54691;48.262;11.586;2023-05-16T10:03:16;19.50;;;10.05;;
2884;SDS011;54691;48.262;11.586;2023-05-16T10:10:13;37.60;;;11.65;;
2884;SDS011;54691;48.262;11.586;2023-05-16T10:17:13;24.92;;;11.28;;
2884;SDS011;54691;48.262;11.586;2023-05-16T10:24:10;30.37;;;12.93;;
2884;SDS011;54691;48.262;11.586;2023-05-16T10:31:09;25.45;;;12.33;;
2884;SDS011;54691;48.262;11.586;2023-05-16T10:38:07;47.20;;;12.45;;
2884;SDS011;54691;48.262;11.586;2023-05-16T10:45:17;39.40;;;15.32;;
2884;SDS011;54691;48.262;11.586;2023-05-16T10:48:46;50.35;;;15.45;;
2884;SDS011;54691;48.262;11.586;2023-05-16T10:55:48;32.73;;;13.48;;
2884;SDS011;54691;48.262;11.586;2023-05-16T11:02:43;32.28;;;12.75;;
2884;SDS011;54691;48.262;11.586;2023-05-16T11:09:42;42.27;;;16.02;;
2884;SDS011;54691;48.262;11.586;2023-05-16T11:16:39;32.08;;;13.78;;
2884;SDS011;54691;48.262;11.586;2023-05-16T11:23:43;30.10;;;13.00;;
2884;SDS011;54691;48.262;11.586;2023-05-16T11:30:36;23.80;;;12.80;;
2884;SDS011;54691;48.262;11.586;2023-05-16T11:37:36;25.43;;;12.28;;
2884;SDS011;54691;48.262;11.586;2023-05-16T11:44:34;25.27;;;13.78;;
2884;SDS011;54691;48.262;11.586;2023-05-16T11:51:31;25.32;;;12.45;;
2884;SDS011;54691;48.262;11.586;2023-05-16T11:58:31;29.72;;;13.20;;
2884;SDS011;54691;48.262;11.586;2023-05-16T12:05:31;34.48;;;13.25;;
2884;SDS011;54691;48.262;11.586;2023-05-16T12:12:32;25.77;;;10.95;;
2884;SDS011;54691;48.262;11.586;2023-05-16T12:19:28;23.50;;;11.80;;
2884;SDS011;54691;48.262;11.586;2023-05-16T12:26:31;17.90;;;11.35;;
2884;SDS011;54691;48.262;11.586;2023-05-16T12:33:26;18.00;;;9.50;;
2884;SDS011;54691;48.262;11.586;2023-05-16T12:40:28;26.77;;;12.10;;
2884;SDS011;54691;48.262;11.586;2023-05-16T12:51:17;23.60;;;9.83;;
2884;SDS011;54691;48.262;11.586;2023-05-16T12:54:44;26.87;;;12.47;;
2884;SDS011;54691;48.262;11.586;2023-05-16T13:01:42;20.60;;;9.20;;
2884;SDS011;54691;48.262;11.586;2023-05-16T13:08:41;14.68;;;7.03;;
2884;SDS011;54691;48.262;11.586;2023-05-16T13:15:40;9.75;;;6.12;;
2884;SDS011;54691;48.262;11.586;2023-05-16T13:22:44;25.40;;;7.55;;
2884;SDS011;54691;48.262;11.586;2023-05-16T13:29:41;66.20;;;14.63;;
2884;SDS011;54691;48.262;11.586;2023-05-16T13:36:47;42.65;;;13.03;;
2884;SDS011;54691;48.262;11.586;2023-05-16T13:40:18;32.90;;;10.60;;
2884;SDS011;54691;48.262;11.586;2023-05-16T13:43:54;21.60;;;9.10;;
2884;SDS011;54691;48.262;11.586;2023-05-16T13:50:53;15.70;;;6.47;;
2884;SDS011;54691;48.262;11.586;2023-05-16T13:57:53;12.18;;;5.62;;
2884;SDS011;54691;48.262;11.586;2023-05-16T14:04:51;11.45;;;5.67;;
2884;SDS011;54691;48.262;11.586;2023-05-16T14:11:48;7.90;;;5.35;;
2884;SDS011;54691;48.262;11.586;2023-05-16T14:18:46;16.57;;;6.47;;
2884;SDS011;54691;48.262;11.586;2023-05-16T14:25:45;13.65;;;6.35;;
2884;SDS011;54691;48.262;11.586;2023-05-16T14:32:44;35.40;;;8.98;;
2884;SDS011;54691;48.262;11.586;2023-05-16T14:43:19;26.42;;;7.78;;
2884;SDS011;54691;48.262;11.586;2023-05-16T14:50:17;23.02;;;7.25;;
2884;SDS011;54691;48.262;11.586;2023-05-16T14:57:19;13.93;;;6.00;;
2884;SDS011;54691;48.262;11.586;2023-05-16T15:04:16;12.80;;;7.78;;
2884;SDS011;54691;48.262;11.586;2023-05-16T15:11:13;14.50;;;7.90;;
2884;SDS011;54691;48.262;11.586;2023-05-16T15:18:10;19.52;;;8.05;;
2884;SDS011;54691;48.262;11.586;2023-05-16T15:25:08;11.33;;;5.78;;
2884;SDS011;54691;48.262;11.586;2023-05-16T15:32:05;13.83;;;6.40;;
2884;SDS011;54691;48.262;11.586;2023-05-16T15:39:02;16.57;;;6.87;;
2884;SDS011;54691;48.262;11.586;2023-05-16T15:46:00;18.07;;;6.97;;
2884;SDS011;54691;48.262;11.586;2023-05-16T15:52:57;52.65;;;9.13;;
2884;SDS011;54691;48.262;11.586;2023-05-16T15:59:54;18.05;;;8.28;;
2884;SDS011;54691;48.262;11.586;2023-05-16T16:06:54;15.50;;;8.23;;
2884;SDS011;54691;48.262;11.586;2023-05-16T16:13:52;24.15;;;10.08;;
2884;SDS011;54691;48.262;11.586;2023-05-16T16:20:49;19.00;;;10.63;;
2884;SDS011;54691;48.262;11.586;2023-05-16T16:27:47;28.05;;;12.65;;
2884;SDS011;54691;48.262;11.586;2023-05-16T16:34:44;24.10;;;12.50;;
2884;SDS011;54691;48.262;11.586;2023-05-16T16:41:41;28.92;;;12.47;;
2884;SDS011;54691;48.262;11.586;2023-05-16T16:48:38;22.85;;;12.98;;
2884;SDS011;54691;48.262;11.586;2023-05-16T16:55:35;31.33;;;14.10;;
2884;SDS011;54691;48.262;11.586;2023-05-16T17:02:33;32.78;;;16.62;;
2884;SDS011;54691;48.262;11.586;2023-05-16T17:09:30;38.92;;;17.55;;
2884;SDS011;54691;48.262;11.586;2023-05-16T17:16:29;38.65;;;16.87;;
2884;SDS011;54691;48.262;11.586;2023-05-16T17:23:26;32.25;;;16.95;;
2884;SDS011;54691;48.262;11.586;2023-05-16T17:30:24;28.25;;;15.13;;
2884;SDS011;54691;48.262;11.586;2023-05-16T17:37:21;23.02;;;13.03;;
2884;SDS011;54691;48.262;11.586;2023-05-16T17:44:18;27.80;;;14.07;;
2884;SDS011;54691;48.262;11.586;2023-05-16T17:51:16;22.85;;;12.30;;
2884;SDS011;54691;48.262;11.586;2023-05-16T17:58:13;23.40;;;10.90;;
2884;SDS011;54691;48.262;11.586;2023-05-16T18:05:10;20.88;;;11.73;;
2884;SDS011;54691;48.262;11.586;2023-05-16T18:12:08;26.27;;;11.97;;
2884;SDS011;54691;48.262;11.586;2023-05-16T18:19:05;24.47;;;11.83;;
2884;SDS011;54691;48.262;11.586;2023-05-16T18:26:03;22.07;;;11.68;;
2884;SDS011;54691;48.262;11.586;2023-05-16T18:33:00;32.35;;;13.05;;
2884;SDS011;54691;48.262;11.586;2023-05-16T18:39:58;24.10;;;9.88;;
2884;SDS011;54691;48.262;11.586;2023-05-16T18:46:55;15.18;;;8.10;;
2884;SDS011;54691;48.262;11.586;2023-05-16T18:53:54;14.80;;;7.05;;
2884;SDS011;54691;48.262;11.586;2023-05-16T19:00:51;20.92;;;7.87;;
2884;SDS011;54691;48.262;11.586;2023-05-16T19:07:48;22.90;;;10.55;;
2884;SDS011;54691;48.262;11.586;2023-05-16T19:14:46;14.47;;;7.85;;
2884;SDS011;54691;48.262;11.586;2023-05-16T19:21:45;13.30;;;7.40;;
2884;SDS011;54691;48.262;11.586;2023-05-16T19:28:42;16.50;;;7.25;;
2884;SDS011;54691;48.262;11.586;2023-05-16T19:35:39;17.62;;;8.35;;
2884;SDS011;54691;48.262;11.586;2023-05-16T19:42:36;21.20;;;7.25;;
2884;SDS011;54691;48.262;11.586;2023-05-16T19:49:35;13.93;;;6.55;;
2884;SDS011;54691;48.262;11.586;2023-05-16T19:56:32;16.95;;;6.08;;
2884;SDS011;54691;48.262;11.586;2023-05-16T20:03:29;14.65;;;6.95;;
2884;SDS011;54691;48.262;11.586;2023-05-16T20:10:29;14.58;;;5.50;;
2884;SDS011;54691;48.262;11.586;2023-05-16T20:17:27;14.10;;;6.47;;
2884;SDS011;54691;48.262;11.586;2023-05-16T20:24:30;24.72;;;8.03;;
2884;SDS011;54691;48.262;11.586;2023-05-16T20:28:07;20.60;;;6.70;;
2884;SDS011;54691;48.262;11.586;2023-05-16T20:31:37;15.90;;;6.60;;
2884;SDS011;54691;48.262;11.586;2023-05-16T20:38:37;14.20;;;5.28;;
2884;SDS011;54691;48.262;11.586;2023-05-16T20:45:38;15.05;;;5.97;;
2884;SDS011;54691;48.262;11.586;2023-05-16T20:52:35;25.37;;;5.70;;
2884;SDS011;54691;48.262;11.586;2023-05-16T20:59:32;20.95;;;5.70;;
2884;SDS011;54691;48.262;11.586;2023-05-16T21:06:30;15.63;;;4.33;;
2884;SDS011;54691;48.262;11.586;2023-05-16T21:13:27;7.37;;;3.37;;
2884;SDS011;54691;48.262;11.586;2023-05-16T21:20:24;14.28;;;3.17;;
2884;SDS011;54691;48.262;11.586;2023-05-16T21:27:23;17.23;;;4.25;;
2884;SDS011;54691;48.262;11.586;2023-05-16T21:31:11;11.43;;;3.95;;
2884;SDS011;54691;48.262;11.586;2023-05-16T21:38:10;8.90;;;2.60;;
2884;SDS011;54691;48.262;11.586;2023-05-16T21:45:08;14.28;;;3.27;;
2884;SDS011;54691;48.262;11.586;2023-05-16T21:52:07;17.50;;;3.27;;
2884;SDS011;54691;48.262;11.586;2023-05-16T21:59:04;6.65;;;2.15;;
2884;SDS011;54691;48.262;11.586;2023-05-16T22:06:01;5.90;;;1.62;;
2884;SDS011;54691;48.262;11.586;2023-05-16T22:13:02;10.05;;;2.00;;
2884;SDS011;54691;48.262;11.586;2023-05-16T22:19:58;22.95;;;3.25;;
2884;SDS011;54691;48.262;11.586;2023-05-16T22:26:57;10.18;;;1.92;;
2884;SDS011;54691;48.262;11.586;2023-05-16T22:33:54;14.45;;;2.58;;
2884;SDS011;54691;48.262;11.586;2023-05-16T22:40:51;13.32;;;1.95;;
2884;SDS011;54691;48.262;11.586;2023-05-16T22:47:48;5.67;;;2.00;;
2884;SDS011;54691;48.262;11.586;2023-05-16T22:54:45;3.40;;;1.40;;
2884;SDS011;54691;48.262;11.586;2023-05-16T23:01:42;3.50;;;1.20;;
2884;SDS011;54691;48.262;11.586;2023-05-16T23:08:39;6.45;;;1.90;;
2884;SDS011;54691;48.262;11.586;2023-05-16T23:15:37;5.50;;;1.25;;
2884;SDS011;54691;48.262;11.586;2023-05-16T23:22:34;2.33;;;1.10;;
2884;SDS011;54691;48.262;11.586;2023-05-16T23:29:31;5.45;;;1.62;;
2884;SDS011;54691;48.262;11.586;2023-05-16T23:36:30;7.78;;;1.45;;
2884;SDS011;54691;48.262;11.586;2023-05-16T23:43:27;14.55;;;2.40;;
2884;SDS011;54691;48.262;11.586;2023-05-16T23:50:24;10.28;;;2.20;;
2884;SDS011;54691;48.262;11.586;2023-05-16T23:57:21;9.88;;;1.75;;
